sensor_id;sensor_type;location;lat;lon;timestamp;pressure;altitude;pressure_sealevel;temperature;humidity
68634;BME280;55625;47.072;22.192;2023-03-19T00:00:22;100296.75;;;1.86;90.18
68634;BME280;55625;47.072;22.192;2023-03-19T00:02:48;100294.66;;;1.83;90.68
68634;BME280;55625;47.072;22.192;2023-03-19T00:05:17;100295.88;;;1.82;91.58
68634;BME280;55625;47.072;22.192;2023-03-19T00:07:43;100301.53;;;1.85;91.66
68634;BME280;55625;47.072;22.192;2023-03-19T00:10:10;100291.56;;;1.88;90.71
68634;BME280;55625;47.072;22.192;2023-03-19T00:12:36;100290.47;;;1.96;90.95
68634;BME280;55625;47.072;22.192;2023-03-19T00:15:02;100294.88;;;1.97;91.09
68634;BME280;55625;47.072;22.192;2023-03-19T00:17:28;100283.66;;;1.97;90.63
68634;BME280;55625;47.072;22.192;2023-03-19T00:19:54;100285.28;;;1.98;90.00
68634;BME280;55625;47.072;22.192;2023-03-19T00:22:20;100282.09;;;2.00;90.35
68634;BME280;55625;47.072;22.192;2023-03-19T00:24:46;100278.88;;;1.98;90.61
68634;BME280;55625;47.072;22.192;2023-03-19T00:27:13;100275.66;;;1.96;89.95
68634;BME280;55625;47.072;22.192;2023-03-19T00:29:38;100276.84;;;1.95;90.04
68634;BME280;55625;47.072;22.192;2023-03-19T00:32:04;100277.22;;;1.93;90.13
68634;BME280;55625;47.072;22.192;2023-03-19T00:34:30;100272.00;;;1.92;90.19
68634;BME280;55625;47.072;22.192;2023-03-19T00:36:56;100273.28;;;1.98;88.45
68634;BME280;55625;47.072;22.192;2023-03-19T00:39:22;100269.34;;;2.02;87.81
68634;BME280;55625;47.072;22.192;2023-03-19T00:41:48;100270.59;;;2.08;87.66
68634;BME280;55625;47.072;22.192;2023-03-19T00:44:16;100268.56;;;2.05;86.80
68634;BME280;55625;47.072;22.192;2023-03-19T00:46:44;100271.75;;;2.04;87.33
68634;BME280;55625;47.072;22.192;2023-03-19T00:49:10;100260.50;;;2.00;87.05
68634;BME280;55625;47.072;22.192;2023-03-19T00:51:35;100264.44;;;1.92;87.19
68634;BME280;55625;47.072;22.192;2023-03-19T00:54:01;100259.56;;;1.85;87.34
68634;BME280;55625;47.072;22.192;2023-03-19T00:56:27;100257.06;;;1.80;87.89
68634;BME280;55625;47.072;22.192;2023-03-19T00:58:55;100258.63;;;1.78;88.10
68634;BME280;55625;47.072;22.192;2023-03-19T01:01:21;100249.81;;;1.76;89.26
68634;BME280;55625;47.072;22.192;2023-03-19T01:03:47;100254.16;;;1.70;89.00
68634;BME280;55625;47.072;22.192;2023-03-19T01:06:13;100257.28;;;1.65;90.71
68634;BME280;55625;47.072;22.192;2023-03-19T01:08:39;100261.19;;;1.57;91.12
68634;BME280;55625;47.072;22.192;2023-03-19T01:11:13;100263.47;;;1.51;91.63
68634;BME280;55625;47.072;22.192;2023-03-19T01:13:41;100259.06;;;1.50;92.08
68634;BME280;55625;47.072;22.192;2023-03-19T01:16:08;100262.31;;;1.52;91.55
68634;BME280;55625;47.072;22.192;2023-03-19T01:18:34;100259.16;;;1.53;91.89
68634;BME280;55625;47.072;22.192;2023-03-19T01:21:00;100260.69;;;1.51;91.55
68634;BME280;55625;47.072;22.192;2023-03-19T01:23:27;100257.47;;;1.49;92.55
68634;BME280;55625;47.072;22.192;2023-03-19T01:25:53;100262.25;;;1.48;92.35
68634;BME280;55625;47.072;22.192;2023-03-19T01:28:19;100254.63;;;1.45;92.36
68634;BME280;55625;47.072;22.192;2023-03-19T01:30:46;100257.84;;;1.47;91.97
68634;BME280;55625;47.072;22.192;2023-03-19T01:33:13;100254.66;;;1.49;92.42
68634;BME280;55625;47.072;22.192;2023-03-19T01:35:39;100258.41;;;1.57;91.23
68634;BME280;55625;47.072;22.192;2023-03-19T01:38:05;100263.22;;;1.60;91.13
68634;BME280;55625;47.072;22.192;2023-03-19T01:40:32;100249.25;;;1.60;90.67
68634;BME280;55625;47.072;22.192;2023-03-19T01:43:21;100258.06;;;1.62;89.78
68634;BME280;55625;47.072;22.192;2023-03-19T01:45:50;100263.59;;;1.58;90.49
68634;BME280;55625;47.072;22.192;2023-03-19T01:48:41;100263.22;;;1.60;89.76
68634;BME280;55625;47.072;22.192;2023-03-19T01:51:12;100260.44;;;1.60;89.28
68634;BME280;55625;47.072;22.192;2023-03-19T01:53:42;100260.09;;;1.65;88.76
68634;BME280;55625;47.072;22.192;2023-03-19T01:56:43;100248.09;;;1.64;88.86
68634;BME280;55625;47.072;22.192;2023-03-19T01:59:38;100260.84;;;1.62;88.73
68634;BME280;55625;47.072;22.192;2023-03-19T02:02:20;100254.78;;;1.56;89.90
68634;BME280;55625;47.072;22.192;2023-03-19T02:04:51;100250.75;;;1.53;89.35
68634;BME280;55625;47.072;22.192;2023-03-19T02:07:18;100254.28;;;1.50;90.16
68634;BME280;55625;47.072;22.192;2023-03-19T02:09:45;100255.84;;;1.48;89.80
68634;BME280;55625;47.072;22.192;2023-03-19T02:12:11;100259.03;;;1.46;89.62
68634;BME280;55625;47.072;22.192;2023-03-19T02:14:37;100263.06;;;1.49;89.40
68634;BME280;55625;47.072;22.192;2023-03-19T02:17:05;100259.03;;;1.46;89.49
68634;BME280;55625;47.072;22.192;2023-03-19T02:19:51;100258.19;;;1.42;89.97
68634;BME280;55625;47.072;22.192;2023-03-19T02:22:25;100262.53;;;1.40;90.38
68634;BME280;55625;47.072;22.192;2023-03-19T02:27:32;100261.06;;;1.49;89.85
68634;BME280;55625;47.072;22.192;2023-03-19T02:29:57;100266.19;;;1.44;90.58
68634;BME280;55625;47.072;22.192;2023-03-19T02:32:23;100261.41;;;1.44;90.79
68634;BME280;55625;47.072;22.192;2023-03-19T02:34:49;100257.03;;;1.47;90.49
68634;BME280;55625;47.072;22.192;2023-03-19T02:37:26;100265.44;;;1.47;91.13
68634;BME280;55625;47.072;22.192;2023-03-19T02:40:05;100262.63;;;1.47;90.25
68634;BME280;55625;47.072;22.192;2023-03-19T02:42:33;100260.25;;;1.49;89.97
68634;BME280;55625;47.072;22.192;2023-03-19T02:44:59;100261.06;;;1.49;90.83
68634;BME280;55625;47.072;22.192;2023-03-19T02:47:25;100267.03;;;1.48;91.12
68634;BME280;55625;47.072;22.192;2023-03-19T02:49:52;100275.06;;;1.49;90.55
68634;BME280;55625;47.072;22.192;2023-03-19T02:52:18;100275.56;;;1.55;90.58
68634;BME280;55625;47.072;22.192;2023-03-19T02:54:44;100283.06;;;1.51;91.09
68634;BME280;55625;47.072;22.192;2023-03-19T02:57:11;100281.88;;;1.52;90.20
68634;BME280;55625;47.072;22.192;2023-03-19T02:59:38;100282.69;;;1.52;90.31
68634;BME280;55625;47.072;22.192;2023-03-19T03:02:04;100275.06;;;1.49;90.12
68634;BME280;55625;47.072;22.192;2023-03-19T03:04:32;100278.72;;;1.53;90.10
68634;BME280;55625;47.072;22.192;2023-03-19T03:06:59;100281.88;;;1.52;90.78
68634;BME280;55625;47.072;22.192;2023-03-19T03:09:25;100280.22;;;1.47;91.08
68634;BME280;55625;47.072;22.192;2023-03-19T03:11:52;100285.47;;;1.52;90.27
68634;BME280;55625;47.072;22.192;2023-03-19T03:14:18;100288.72;;;1.54;90.55
68634;BME280;55625;47.072;22.192;2023-03-19T03:16:44;100280.69;;;1.53;90.51
68634;BME280;55625;47.072;22.192;2023-03-19T03:19:10;100279.16;;;1.55;90.33
68634;BME280;55625;47.072;22.192;2023-03-19T03:21:36;100286.78;;;1.59;90.24
68634;BME280;55625;47.072;22.192;2023-03-19T03:24:03;100281.63;;;1.61;89.88
68634;BME280;55625;47.072;22.192;2023-03-19T03:26:29;100280.09;;;1.67;89.76
68634;BME280;55625;47.072;22.192;2023-03-19T03:28:55;100281.28;;;1.66;89.77
68634;BME280;55625;47.072;22.192;2023-03-19T03:31:21;100288.47;;;1.67;89.89
68634;BME280;55625;47.072;22.192;2023-03-19T03:33:48;100284.06;;;1.66;89.93
68634;BME280;55625;47.072;22.192;2023-03-19T03:36:15;100283.59;;;1.60;89.57
68634;BME280;55625;47.072;22.192;2023-03-19T03:38:41;100284.78;;;1.59;89.83
68634;BME280;55625;47.072;22.192;2023-03-19T03:41:07;100280.78;;;1.57;89.72
68634;BME280;55625;47.072;22.192;2023-03-19T03:43:33;100274.28;;;1.52;90.78
68634;BME280;55625;47.072;22.192;2023-03-19T03:45:59;100279.16;;;1.55;89.24
68634;BME280;55625;47.072;22.192;2023-03-19T03:48:25;100272.25;;;1.49;90.16
68634;BME280;55625;47.072;22.192;2023-03-19T03:50:51;100281.53;;;1.53;90.00
68634;BME280;55625;47.072;22.192;2023-03-19T03:53:17;100278.22;;;1.48;89.69
68634;BME280;55625;47.072;22.192;2023-03-19T03:55:43;100277.09;;;1.52;89.55
68634;BME280;55625;47.072;22.192;2023-03-19T03:58:09;100279.84;;;1.49;89.73
68634;BME280;55625;47.072;22.192;2023-03-19T04:00:35;100275.06;;;1.49;90.35
68634;BME280;55625;47.072;22.192;2023-03-19T04:03:01;100284.69;;;1.52;90.42
68634;BME280;55625;47.072;22.192;2023-03-19T04:05:27;100282.69;;;1.52;90.90
68634;BME280;55625;47.072;22.192;2023-03-19T04:07:53;100274.38;;;1.56;90.98
68634;BME280;55625;47.072;22.192;2023-03-19T04:10:19;100268.41;;;1.58;90.21
68634;BME280;55625;47.072;22.192;2023-03-19T04:12:45;100270.47;;;1.64;90.22
68634;BME280;55625;47.072;22.192;2023-03-19T04:15:11;100278.47;;;1.66;89.40
68634;BME280;55625;47.072;22.192;2023-03-19T04:17:37;100269.94;;;1.85;87.65
68634;BME280;55625;47.072;22.192;2023-03-19T04:20:06;100275.00;;;1.76;87.74
68634;BME280;55625;47.072;22.192;2023-03-19T04:22:32;100264.38;;;1.89;87.36
68634;BME280;55625;47.072;22.192;2023-03-19T04:24:58;100266.00;;;1.90;87.05
68634;BME280;55625;47.072;22.192;2023-03-19T04:27:24;100262.78;;;1.88;86.34
68634;BME280;55625;47.072;22.192;2023-03-19T04:29:50;100264.34;;;1.85;86.92
68634;BME280;55625;47.072;22.192;2023-03-19T04:32:16;100256.78;;;1.89;85.96
68634;BME280;55625;47.072;22.192;2023-03-19T04:34:42;100264.47;;;1.96;86.29
68634;BME280;55625;47.072;22.192;2023-03-19T04:37:08;100265.22;;;1.93;86.71
68634;BME280;55625;47.072;22.192;2023-03-19T04:39:37;100255.69;;;1.97;86.96
68634;BME280;55625;47.072;22.192;2023-03-19T04:42:03;100250.13;;;2.01;85.85
68634;BME280;55625;47.072;22.192;2023-03-19T04:44:29;100255.75;;;2.04;86.15
68634;BME280;55625;47.072;22.192;2023-03-19T04:46:56;100249.31;;;2.00;86.44
68634;BME280;55625;47.072;22.192;2023-03-19T04:49:22;100250.59;;;2.06;85.84
68634;BME280;55625;47.072;22.192;2023-03-19T04:51:49;100248.59;;;2.07;86.30
68634;BME280;55625;47.072;22.192;2023-03-19T04:54:15;100248.66;;;2.14;85.85
68634;BME280;55625;47.072;22.192;2023-03-19T04:56:41;100237.53;;;2.17;85.35
68634;BME280;55625;47.072;22.192;2023-03-19T04:59:07;100247.19;;;2.24;85.10
68634;BME280;55625;47.072;22.192;2023-03-19T05:01:33;100240.03;;;2.30;84.89
68634;BME280;55625;47.072;22.192;2023-03-19T05:03:59;100238.47;;;2.36;84.21
68634;BME280;55625;47.072;22.192;2023-03-19T05:06:25;100226.94;;;2.41;84.87
68634;BME280;55625;47.072;22.192;2023-03-19T05:08:52;100229.72;;;2.41;84.37
68634;BME280;55625;47.072;22.192;2023-03-19T05:11:18;100231.69;;;2.37;85.36
68634;BME280;55625;47.072;22.192;2023-03-19T05:13:44;100238.53;;;2.43;84.03
68634;BME280;55625;47.072;22.192;2023-03-19T05:16:10;100236.19;;;2.45;84.33
68634;BME280;55625;47.072;22.192;2023-03-19T05:18:37;100232.63;;;2.48;83.70
68634;BME280;55625;47.072;22.192;2023-03-19T05:21:04;100236.66;;;2.54;82.98
68634;BME280;55625;47.072;22.192;2023-03-19T05:23:30;100239.13;;;2.63;82.92
68634;BME280;55625;47.072;22.192;2023-03-19T05:26:00;100240.78;;;2.71;82.86
68634;BME280;55625;47.072;22.192;2023-03-19T05:28:26;100245.28;;;2.79;83.11
68634;BME280;55625;47.072;22.192;2023-03-19T05:30:52;100238.94;;;2.86;83.05
68634;BME280;55625;47.072;22.192;2023-03-19T05:33:18;100222.13;;;2.89;83.12
68634;BME280;55625;47.072;22.192;2023-03-19T05:35:44;100232.19;;;2.97;82.75
68634;BME280;55625;47.072;22.192;2023-03-19T05:38:10;100240.25;;;3.06;81.89
68634;BME280;55625;47.072;22.192;2023-03-19T05:40:36;100230.34;;;3.19;81.08
68634;BME280;55625;47.072;22.192;2023-03-19T05:43:02;100235.19;;;3.29;80.53
68634;BME280;55625;47.072;22.192;2023-03-19T05:45:28;100231.25;;;3.37;80.66
68634;BME280;55625;47.072;22.192;2023-03-19T05:47:54;100236.91;;;3.45;80.51
68634;BME280;55625;47.072;22.192;2023-03-19T05:50:20;100240.56;;;3.56;80.03
68634;BME280;55625;47.072;22.192;2023-03-19T05:52:46;100245.81;;;3.64;78.67
68634;BME280;55625;47.072;22.192;2023-03-19T05:55:12;100230.66;;;3.83;78.09
68634;BME280;55625;47.072;22.192;2023-03-19T05:57:38;100232.31;;;3.98;77.08
68634;BME280;55625;47.072;22.192;2023-03-19T06:00:05;100227.94;;;4.04;76.99
68634;BME280;55625;47.072;22.192;2023-03-19T06:02:33;100231.16;;;4.17;76.61
68634;BME280;55625;47.072;22.192;2023-03-19T06:05:00;100234.00;;;4.35;76.74
68634;BME280;55625;47.072;22.192;2023-03-19T06:07:25;100228.41;;;4.56;75.71
68634;BME280;55625;47.072;22.192;2023-03-19T06:09:51;100229.22;;;4.67;74.78
68634;BME280;55625;47.072;22.192;2023-03-19T06:12:17;100230.41;;;4.81;74.82
68634;BME280;55625;47.072;22.192;2023-03-19T06:14:43;100226.81;;;4.91;74.96
68634;BME280;55625;47.072;22.192;2023-03-19T06:17:09;100227.59;;;5.02;74.75
68634;BME280;55625;47.072;22.192;2023-03-19T06:19:35;100222.38;;;5.08;74.40
68634;BME280;55625;47.072;22.192;2023-03-19T06:22:01;100225.56;;;5.13;73.66
68634;BME280;55625;47.072;22.192;2023-03-19T06:24:27;100227.56;;;5.20;74.61
68634;BME280;55625;47.072;22.192;2023-03-19T06:26:55;100223.53;;;5.32;73.55
68634;BME280;55625;47.072;22.192;2023-03-19T06:29:21;100219.47;;;5.43;73.38
68634;BME280;55625;47.072;22.192;2023-03-19T06:31:47;100225.88;;;5.54;72.95
68634;BME280;55625;47.072;22.192;2023-03-19T06:34:13;100231.03;;;5.70;72.00
68634;BME280;55625;47.072;22.192;2023-03-19T06:36:39;100233.44;;;5.82;70.81
68634;BME280;55625;47.072;22.192;2023-03-19T06:39:04;100230.59;;;5.86;71.06
68634;BME280;55625;47.072;22.192;2023-03-19T06:41:30;100239.41;;;5.99;70.96
68634;BME280;55625;47.072;22.192;2023-03-19T06:43:57;100235.31;;;6.07;70.79
68634;BME280;55625;47.072;22.192;2023-03-19T06:46:22;100226.41;;;6.22;71.29
68634;BME280;55625;47.072;22.192;2023-03-19T06:48:48;100234.31;;;6.45;71.44
68634;BME280;55625;47.072;22.192;2023-03-19T06:51:14;100227.63;;;6.73;70.57
68634;BME280;55625;47.072;22.192;2023-03-19T06:53:40;100226.97;;;7.03;70.53
68634;BME280;55625;47.072;22.192;2023-03-19T06:56:06;100230.31;;;7.36;68.99
68634;BME280;55625;47.072;22.192;2023-03-19T06:58:32;100228.50;;;7.53;67.77
68634;BME280;55625;47.072;22.192;2023-03-19T07:00:59;100241.13;;;7.78;66.36
68634;BME280;55625;47.072;22.192;2023-03-19T07:03:25;100247.22;;;8.07;67.03
68634;BME280;55625;47.072;22.192;2023-03-19T07:05:51;100245.28;;;8.31;64.82
68634;BME280;55625;47.072;22.192;2023-03-19T07:08:18;100243.19;;;8.66;64.29
68634;BME280;55625;47.072;22.192;2023-03-19T07:10:44;100249.91;;;8.99;62.83
68634;BME280;55625;47.072;22.192;2023-03-19T07:13:10;100243.09;;;9.20;60.11
68634;BME280;55625;47.072;22.192;2023-03-19T07:15:36;100239.84;;;9.41;60.20
68634;BME280;55625;47.072;22.192;2023-03-19T07:18:02;100238.50;;;9.49;57.02
68634;BME280;55625;47.072;22.192;2023-03-19T07:20:28;100246.59;;;9.71;56.82
68634;BME280;55625;47.072;22.192;2023-03-19T07:22:54;100245.19;;;9.79;56.25
68634;BME280;55625;47.072;22.192;2023-03-19T07:25:20;100250.28;;;9.68;53.90
68634;BME280;55625;47.072;22.192;2023-03-19T07:27:46;100250.94;;;9.75;54.79
68634;BME280;55625;47.072;22.192;2023-03-19T07:30:13;100243.59;;;9.98;53.42
68634;BME280;55625;47.072;22.192;2023-03-19T07:32:39;100248.13;;;10.15;50.40
68634;BME280;55625;47.072;22.192;2023-03-19T07:35:06;100240.47;;;10.32;52.48
68634;BME280;55625;47.072;22.192;2023-03-19T07:37:32;100247.78;;;10.49;51.95
68634;BME280;55625;47.072;22.192;2023-03-19T07:39:59;100240.34;;;10.55;49.36
68634;BME280;55625;47.072;22.192;2023-03-19T07:42:25;100226.91;;;10.75;50.84
68634;BME280;55625;47.072;22.192;2023-03-19T07:44:50;100231.69;;;10.95;48.27
68634;BME280;55625;47.072;22.192;2023-03-19T07:47:16;100235.94;;;11.19;49.41
68634;BME280;55625;47.072;22.192;2023-03-19T07:49:42;100238.59;;;11.26;50.68
68634;BME280;55625;47.072;22.192;2023-03-19T07:52:08;100224.31;;;11.59;49.70
68634;BME280;55625;47.072;22.192;2023-03-19T07:54:35;100231.75;;;11.69;47.02
68634;BME280;55625;47.072;22.192;2023-03-19T07:57:01;100218.91;;;11.64;47.79
68634;BME280;55625;47.072;22.192;2023-03-19T07:59:27;100229.97;;;11.75;46.72
68634;BME280;55625;47.072;22.192;2023-03-19T08:01:52;100238.13;;;11.73;47.58
68634;BME280;55625;47.072;22.192;2023-03-19T08:04:18;100232.69;;;11.95;47.64
68634;BME280;55625;47.072;22.192;2023-03-19T08:06:44;100231.63;;;12.30;47.76
68634;BME280;55625;47.072;22.192;2023-03-19T08:09:10;100236.09;;;12.57;48.22
68634;BME280;55625;47.072;22.192;2023-03-19T08:11:36;100240.28;;;12.65;45.82
68634;BME280;55625;47.072;22.192;2023-03-19T08:14:02;100244.84;;;12.88;46.08
68634;BME280;55625;47.072;22.192;2023-03-19T08:16:28;100242.81;;;12.88;45.83
68634;BME280;55625;47.072;22.192;2023-03-19T08:18:54;100238.19;;;13.16;45.40
68634;BME280;55625;47.072;22.192;2023-03-19T08:21:20;100229.00;;;13.47;45.92
68634;BME280;55625;47.072;22.192;2023-03-19T08:23:46;100239.28;;;13.79;44.73
68634;BME280;55625;47.072;22.192;2023-03-19T08:26:11;100236.84;;;14.12;43.35
68634;BME280;55625;47.072;22.192;2023-03-19T08:28:37;100229.53;;;14.11;39.58
68634;BME280;55625;47.072;22.192;2023-03-19T08:31:12;100226.75;;;13.98;40.54
68634;BME280;55625;47.072;22.192;2023-03-19T08:33:38;100228.59;;;14.14;40.71
68634;BME280;55625;47.072;22.192;2023-03-19T08:36:14;100226.78;;;14.29;38.96
68634;BME280;55625;47.072;22.192;2023-03-19T08:38:40;100227.53;;;14.20;39.40
68634;BME280;55625;47.072;22.192;2023-03-19T08:41:06;100220.22;;;14.19;39.44
68634;BME280;55625;47.072;22.192;2023-03-19T08:43:34;100209.16;;;14.52;39.33
68634;BME280;55625;47.072;22.192;2023-03-19T08:46:02;100207.09;;;14.53;38.63
68634;BME280;55625;47.072;22.192;2023-03-19T08:48:28;100210.84;;;14.41;38.48
68634;BME280;55625;47.072;22.192;2023-03-19T08:50:56;100210.41;;;13.98;39.59
68634;BME280;55625;47.072;22.192;2023-03-19T08:53:23;100204.53;;;14.24;38.75
68634;BME280;55625;47.072;22.192;2023-03-19T08:56:01;100207.69;;;14.17;40.50
68634;BME280;55625;47.072;22.192;2023-03-19T08:58:27;100209.00;;;14.25;38.30
68634;BME280;55625;47.072;22.192;2023-03-19T09:01:00;100210.59;;;14.48;39.09
68634;BME280;55625;47.072;22.192;2023-03-19T09:03:27;100216.19;;;15.01;38.51
68634;BME280;55625;47.072;22.192;2023-03-19T09:05:59;100198.56;;;15.20;37.51
68634;BME280;55625;47.072;22.192;2023-03-19T09:08:26;100206.56;;;15.44;37.54
68634;BME280;55625;47.072;22.192;2023-03-19T09:10:54;100206.28;;;15.69;37.13
68634;BME280;55625;47.072;22.192;2023-03-19T09:13:20;100202.91;;;15.89;37.02
68634;BME280;55625;47.072;22.192;2023-03-19T09:15:46;100200.50;;;16.06;35.78
68634;BME280;55625;47.072;22.192;2023-03-19T09:18:12;100196.41;;;15.98;35.32
68634;BME280;55625;47.072;22.192;2023-03-19T09:20:38;100198.59;;;16.12;37.31
68634;BME280;55625;47.072;22.192;2023-03-19T09:23:04;100185.47;;;16.38;38.22
68634;BME280;55625;47.072;22.192;2023-03-19T09:25:30;100189.56;;;15.59;37.85
68634;BME280;55625;47.072;22.192;2023-03-19T09:27:56;100192.25;;;15.99;38.29
68634;BME280;55625;47.072;22.192;2023-03-19T09:30:21;100193.28;;;16.38;38.07
68634;BME280;55625;47.072;22.192;2023-03-19T09:32:47;100190.47;;;16.71;35.42
68634;BME280;55625;47.072;22.192;2023-03-19T09:35:13;100189.63;;;16.80;35.91
68634;BME280;55625;47.072;22.192;2023-03-19T09:37:39;100194.78;;;16.99;36.67
68634;BME280;55625;47.072;22.192;2023-03-19T09:40:06;100190.25;;;17.07;33.26
68634;BME280;55625;47.072;22.192;2023-03-19T09:43:27;100184.03;;;17.09;35.02
68634;BME280;55625;47.072;22.192;2023-03-19T09:45:48;100186.84;;;17.42;35.91
68634;BME280;55625;47.072;22.192;2023-03-19T09:48:42;100183.72;;;17.55;32.98
68634;BME280;55625;47.072;22.192;2023-03-19T09:51:48;100184.22;;;17.53;31.66
68634;BME280;55625;47.072;22.192;2023-03-19T09:54:31;100174.91;;;17.82;30.41
68634;BME280;55625;47.072;22.192;2023-03-19T09:56:58;100174.81;;;17.77;27.24
68634;BME280;55625;47.072;22.192;2023-03-19T09:59:27;100182.63;;;17.91;27.84
68634;BME280;55625;47.072;22.192;2023-03-19T10:05:00;100178.28;;;18.25;28.53
68634;BME280;55625;47.072;22.192;2023-03-19T10:10:38;100160.78;;;18.08;28.98
68634;BME280;55625;47.072;22.192;2023-03-19T10:13:39;100154.91;;;18.17;27.64
68634;BME280;55625;47.072;22.192;2023-03-19T10:16:20;100142.81;;;18.43;28.45
68634;BME280;55625;47.072;22.192;2023-03-19T10:18:50;100142.31;;;18.29;26.71
68634;BME280;55625;47.072;22.192;2023-03-19T10:21:48;100150.53;;;18.37;28.68
68634;BME280;55625;47.072;22.192;2023-03-19T10:27:18;100142.19;;;18.68;29.13
68634;BME280;55625;47.072;22.192;2023-03-19T10:29:42;100133.91;;;18.41;28.01
68634;BME280;55625;47.072;22.192;2023-03-19T10:32:18;100126.56;;;18.25;26.24
68634;BME280;55625;47.072;22.192;2023-03-19T10:34:49;100125.09;;;18.15;25.59
68634;BME280;55625;47.072;22.192;2023-03-19T10:37:28;100131.25;;;18.08;28.87
68634;BME280;55625;47.072;22.192;2023-03-19T10:40:00;100124.50;;;18.25;28.14
68634;BME280;55625;47.072;22.192;2023-03-19T10:43:15;100122.03;;;18.18;26.23
68634;BME280;55625;47.072;22.192;2023-03-19T10:45:42;100117.03;;;18.34;27.79
68634;BME280;55625;47.072;22.192;2023-03-19T10:48:14;100119.66;;;17.87;24.35
68634;BME280;55625;47.072;22.192;2023-03-19T10:51:00;100110.94;;;17.43;23.94
68634;BME280;55625;47.072;22.192;2023-03-19T10:53:35;100103.94;;;17.44;24.86
68634;BME280;55625;47.072;22.192;2023-03-19T10:56:18;100087.38;;;17.92;27.84
68634;BME280;55625;47.072;22.192;2023-03-19T10:59:10;100074.88;;;18.10;25.91
68634;BME280;55625;47.072;22.192;2023-03-19T11:01:45;100083.00;;;18.12;26.96
68634;BME280;55625;47.072;22.192;2023-03-19T11:04:21;100078.56;;;18.11;26.63
68634;BME280;55625;47.072;22.192;2023-03-19T11:07:07;100081.16;;;18.44;27.09
68634;BME280;55625;47.072;22.192;2023-03-19T11:09:37;100076.94;;;18.74;27.35
68634;BME280;55625;47.072;22.192;2023-03-19T11:12:23;100077.94;;;18.71;29.14
68634;BME280;55625;47.072;22.192;2023-03-19T11:14:52;100070.47;;;18.44;25.02
68634;BME280;55625;47.072;22.192;2023-03-19T11:17:40;100074.56;;;18.23;26.53
68634;BME280;55625;47.072;22.192;2023-03-19T11:22:37;100075.91;;;18.77;24.55
68634;BME280;55625;47.072;22.192;2023-03-19T11:25:14;100073.75;;;18.37;25.82
68634;BME280;55625;47.072;22.192;2023-03-19T11:27:44;100067.31;;;18.27;26.19
68634;BME280;55625;47.072;22.192;2023-03-19T11:30:21;100056.88;;;18.45;25.38
68634;BME280;55625;47.072;22.192;2023-03-19T11:36:38;100053.13;;;18.94;25.76
68634;BME280;55625;47.072;22.192;2023-03-19T11:39:55;100048.16;;;18.95;27.32
68634;BME280;55625;47.072;22.192;2023-03-19T11:50:52;100031.22;;;17.62;27.60
68634;BME280;55625;47.072;22.192;2023-03-19T11:56:41;100018.25;;;17.22;27.84
68634;BME280;55625;47.072;22.192;2023-03-19T12:17:21;99994.06;;;18.58;27.74
68634;BME280;55625;47.072;22.192;2023-03-19T12:25:33;99983.88;;;18.98;27.75
68634;BME280;55625;47.072;22.192;2023-03-19T12:35:59;99980.88;;;18.86;28.59
68634;BME280;55625;47.072;22.192;2023-03-19T12:38:44;99979.16;;;18.74;28.47
68634;BME280;55625;47.072;22.192;2023-03-19T12:41:22;99978.22;;;18.83;28.37
68634;BME280;55625;47.072;22.192;2023-03-19T12:46:50;99961.38;;;18.55;26.75
68634;BME280;55625;47.072;22.192;2023-03-19T12:49:54;99958.00;;;18.57;28.64
68634;BME280;55625;47.072;22.192;2023-03-19T12:52:42;99956.34;;;18.50;29.00
68634;BME280;55625;47.072;22.192;2023-03-19T12:55:19;99953.34;;;18.39;27.68
68634;BME280;55625;47.072;22.192;2023-03-19T13:00:29;99955.97;;;18.22;28.29
68634;BME280;55625;47.072;22.192;2023-03-19T13:06:22;99948.97;;;18.64;29.36
68634;BME280;55625;47.072;22.192;2023-03-19T13:09:13;99946.81;;;18.79;28.48
68634;BME280;55625;47.072;22.192;2023-03-19T13:19:51;99937.50;;;18.29;29.07
68634;BME280;55625;47.072;22.192;2023-03-19T13:22:23;99930.25;;;18.13;28.92
68634;BME280;55625;47.072;22.192;2023-03-19T13:24:51;99941.41;;;17.91;28.03
68634;BME280;55625;47.072;22.192;2023-03-19T13:27:30;99931.72;;;17.88;28.61
68634;BME280;55625;47.072;22.192;2023-03-19T13:33:00;99917.91;;;17.57;29.82
68634;BME280;55625;47.072;22.192;2023-03-19T13:35:49;99921.75;;;17.84;28.91
68634;BME280;55625;47.072;22.192;2023-03-19T13:38:24;99926.34;;;17.96;28.85
68634;BME280;55625;47.072;22.192;2023-03-19T13:40:56;99908.00;;;17.73;28.48
68634;BME280;55625;47.072;22.192;2023-03-19T13:59:40;99873.63;;;16.99;29.24
68634;BME280;55625;47.072;22.192;2023-03-19T14:07:47;99874.31;;;16.26;31.31
68634;BME280;55625;47.072;22.192;2023-03-19T14:12:46;99878.91;;;16.62;31.89
68634;BME280;55625;47.072;22.192;2023-03-19T14:15:21;99876.34;;;16.64;32.13
68634;BME280;55625;47.072;22.192;2023-03-19T14:18:01;99878.09;;;16.47;31.96
68634;BME280;55625;47.072;22.192;2023-03-19T14:20:32;99874.22;;;16.35;32.60
68634;BME280;55625;47.072;22.192;2023-03-19T14:23:18;99874.72;;;16.34;33.20
68634;BME280;55625;47.072;22.192;2023-03-19T14:29:01;99883.53;;;16.21;33.17
68634;BME280;55625;47.072;22.192;2023-03-19T14:34:26;99877.88;;;16.12;30.76
68634;BME280;55625;47.072;22.192;2023-03-19T14:39:44;99866.84;;;16.20;31.50
68634;BME280;55625;47.072;22.192;2023-03-19T14:51:07;99853.31;;;16.20;32.59
68634;BME280;55625;47.072;22.192;2023-03-19T14:53:53;99850.72;;;16.07;32.45
68634;BME280;55625;47.072;22.192;2023-03-19T14:56:30;99848.47;;;15.88;31.21
68634;BME280;55625;47.072;22.192;2023-03-19T14:58:57;99853.59;;;15.83;32.24
68634;BME280;55625;47.072;22.192;2023-03-19T15:01:29;99855.44;;;15.96;32.70
68634;BME280;55625;47.072;22.192;2023-03-19T15:04:09;99846.97;;;16.01;32.63